sensor_id;sensor_type;location;lat;lon;timestamp;pressure;altitude;pressure_sealevel;temperature;humidity
41250;BME280;26984;59.928;30.306;2022-12-18T00:00:44;102428.75;;;-2.25;93.80
41250;BME280;26984;59.928;30.306;2022-12-18T00:03:12;102428.69;;;-2.24;93.93
41250;BME280;26984;59.928;30.306;2022-12-18T00:05:45;102433.69;;;-2.19;93.96
41250;BME280;26984;59.928;30.306;2022-12-18T00:08:13;102432.34;;;-2.26;89.48
41250;BME280;26984;59.928;30.306;2022-12-18T00:10:40;102434.06;;;-2.41;91.53
41250;BME280;26984;59.928;30.306;2022-12-18T00:13:07;102427.69;;;-2.53;92.12
41250;BME280;26984;59.928;30.306;2022-12-18T00:15:36;102434.19;;;-2.58;93.35
41250;BME280;26984;59.928;30.306;2022-12-18T00:18:04;102424.81;;;-2.48;94.68
41250;BME280;26984;59.928;30.306;2022-12-18T00:20:35;102429.97;;;-2.47;95.27
41250;BME280;26984;59.928;30.306;2022-12-18T00:23:02;102432.09;;;-2.37;95.07
41250;BME280;26984;59.928;30.306;2022-12-18T00:25:32;102430.66;;;-2.27;94.27
41250;BME280;26984;59.928;30.306;2022-12-18T00:27:59;102423.19;;;-2.21;91.86
41250;BME280;26984;59.928;30.306;2022-12-18T00:30:27;102418.34;;;-2.28;93.34
41250;BME280;26984;59.928;30.306;2022-12-18T00:32:56;102423.75;;;-2.30;92.65
41250;BME280;26984;59.928;30.306;2022-12-18T00:35:25;102413.00;;;-2.27;92.90
41250;BME280;26984;59.928;30.306;2022-12-18T00:37:52;102416.16;;;-2.20;93.14
41250;BME280;26984;59.928;30.306;2022-12-18T00:40:20;102409.25;;;-2.23;92.38
41250;BME280;26984;59.928;30.306;2022-12-18T00:42:47;102409.31;;;-2.24;93.10
41250;BME280;26984;59.928;30.306;2022-12-18T00:45:31;102413.69;;;-2.23;92.82
41250;BME280;26984;59.928;30.306;2022-12-18T00:48:00;102415.28;;;-2.21;92.59
41250;BME280;26984;59.928;30.306;2022-12-18T00:50:27;102408.97;;;-2.18;93.60
41250;BME280;26984;59.928;30.306;2022-12-18T00:52:55;102405.13;;;-2.12;93.22
41250;BME280;26984;59.928;30.306;2022-12-18T00:55:22;102404.78;;;-2.06;93.43
41250;BME280;26984;59.928;30.306;2022-12-18T00:57:50;102405.50;;;-2.04;93.22
41250;BME280;26984;59.928;30.306;2022-12-18T01:00:18;102406.09;;;-1.99;93.05
41250;BME280;26984;59.928;30.306;2022-12-18T01:02:45;102401.50;;;-1.96;92.93
41250;BME280;26984;59.928;30.306;2022-12-18T01:05:14;102399.78;;;-1.97;92.94
41250;BME280;26984;59.928;30.306;2022-12-18T01:07:41;102398.84;;;-1.96;92.52
41250;BME280;26984;59.928;30.306;2022-12-18T01:10:09;102403.25;;;-1.96;91.39
41250;BME280;26984;59.928;30.306;2022-12-18T01:12:38;102401.25;;;-2.07;91.31
41250;BME280;26984;59.928;30.306;2022-12-18T01:15:13;102397.94;;;-2.10;92.73
41250;BME280;26984;59.928;30.306;2022-12-18T01:17:40;102393.44;;;-2.08;93.19
41250;BME280;26984;59.928;30.306;2022-12-18T01:20:08;102392.41;;;-2.06;93.21
41250;BME280;26984;59.928;30.306;2022-12-18T01:22:37;102388.66;;;-2.02;93.51
41250;BME280;26984;59.928;30.306;2022-12-18T01:25:07;102381.28;;;-1.97;93.39
41250;BME280;26984;59.928;30.306;2022-12-18T01:27:34;102379.72;;;-1.85;93.15
41250;BME280;26984;59.928;30.306;2022-12-18T01:30:03;102376.75;;;-1.95;92.76
41250;BME280;26984;59.928;30.306;2022-12-18T01:32:31;102381.56;;;-2.01;94.25
41250;BME280;26984;59.928;30.306;2022-12-18T01:34:58;102387.78;;;-2.02;95.21
41250;BME280;26984;59.928;30.306;2022-12-18T01:37:26;102380.72;;;-2.02;94.62
41250;BME280;26984;59.928;30.306;2022-12-18T01:39:55;102379.69;;;-1.99;94.81
41250;BME280;26984;59.928;30.306;2022-12-18T01:42:23;102385.72;;;-1.97;95.40
41250;BME280;26984;59.928;30.306;2022-12-18T01:44:53;102389.03;;;-1.94;94.97
41250;BME280;26984;59.928;30.306;2022-12-18T01:47:23;102385.44;;;-1.93;95.00
41250;BME280;26984;59.928;30.306;2022-12-18T01:49:52;102383.09;;;-1.83;93.43
41250;BME280;26984;59.928;30.306;2022-12-18T01:52:20;102390.63;;;-1.91;92.87
41250;BME280;26984;59.928;30.306;2022-12-18T01:54:48;102393.28;;;-1.91;92.77
41250;BME280;26984;59.928;30.306;2022-12-18T01:57:18;102394.22;;;-1.92;92.75
41250;BME280;26984;59.928;30.306;2022-12-18T01:59:46;102385.66;;;-1.96;93.24
41250;BME280;26984;59.928;30.306;2022-12-18T02:02:16;102387.78;;;-2.02;92.35
41250;BME280;26984;59.928;30.306;2022-12-18T02:04:43;102386.44;;;-2.24;93.94
41250;BME280;26984;59.928;30.306;2022-12-18T02:07:12;102387.63;;;-2.29;94.95
41250;BME280;26984;59.928;30.306;2022-12-18T02:09:44;102386.19;;;-2.35;95.17
41250;BME280;26984;59.928;30.306;2022-12-18T02:12:15;102388.16;;;-2.38;96.27
41250;BME280;26984;59.928;30.306;2022-12-18T02:14:47;102385.34;;;-2.35;96.60
41250;BME280;26984;59.928;30.306;2022-12-18T02:17:19;102382.84;;;-2.23;96.16
41250;BME280;26984;59.928;30.306;2022-12-18T02:19:53;102382.50;;;-2.17;95.15
41250;BME280;26984;59.928;30.306;2022-12-18T02:22:25;102377.78;;;-2.11;95.07
41250;BME280;26984;59.928;30.306;2022-12-18T02:24:57;102376.75;;;-2.09;94.87
41250;BME280;26984;59.928;30.306;2022-12-18T02:27:28;102369.50;;;-2.05;95.07
41250;BME280;26984;59.928;30.306;2022-12-18T02:29:58;102371.00;;;-2.01;95.53
41250;BME280;26984;59.928;30.306;2022-12-18T02:32:28;102369.03;;;-1.98;95.18
41250;BME280;26984;59.928;30.306;2022-12-18T02:34:57;102367.72;;;-1.90;93.63
41250;BME280;26984;59.928;30.306;2022-12-18T02:37:28;102365.91;;;-1.90;93.58
41250;BME280;26984;59.928;30.306;2022-12-18T02:40:00;102364.28;;;-1.93;93.61
41250;BME280;26984;59.928;30.306;2022-12-18T02:42:32;102369.03;;;-1.98;94.15
41250;BME280;26984;59.928;30.306;2022-12-18T02:45:01;102359.78;;;-1.90;93.59
41250;BME280;26984;59.928;30.306;2022-12-18T02:47:30;102370.97;;;-2.15;92.64
41250;BME280;26984;59.928;30.306;2022-12-18T02:50:02;102364.81;;;-2.30;94.06
41250;BME280;26984;59.928;30.306;2022-12-18T02:52:35;102368.13;;;-2.27;95.31
41250;BME280;26984;59.928;30.306;2022-12-18T02:55:13;102373.38;;;-2.57;93.38
41250;BME280;26984;59.928;30.306;2022-12-18T02:57:52;102372.06;;;-2.80;95.26
41250;BME280;26984;59.928;30.306;2022-12-18T03:00:27;102370.19;;;-2.62;96.59
41250;BME280;26984;59.928;30.306;2022-12-18T03:02:56;102363.56;;;-2.85;96.65
41250;BME280;26984;59.928;30.306;2022-12-18T03:05:27;102373.59;;;-3.39;100.00
41250;BME280;26984;59.928;30.306;2022-12-18T03:07:58;102373.63;;;-3.72;100.00
41250;BME280;26984;59.928;30.306;2022-12-18T03:10:31;102372.50;;;-3.84;100.00
41250;BME280;26984;59.928;30.306;2022-12-18T03:13:04;102369.13;;;-4.03;100.00
41250;BME280;26984;59.928;30.306;2022-12-18T03:15:34;102366.88;;;-3.94;100.00
41250;BME280;26984;59.928;30.306;2022-12-18T03:18:08;102371.88;;;-3.89;100.00
41250;BME280;26984;59.928;30.306;2022-12-18T03:20:39;102373.09;;;-3.79;100.00
41250;BME280;26984;59.928;30.306;2022-12-18T03:23:09;102374.16;;;-3.66;100.00
41250;BME280;26984;59.928;30.306;2022-12-18T03:25:38;102372.31;;;-3.81;100.00
41250;BME280;26984;59.928;30.306;2022-12-18T03:28:08;102372.88;;;-3.92;100.00
41250;BME280;26984;59.928;30.306;2022-12-18T03:30:37;102378.69;;;-3.85;100.00
41250;BME280;26984;59.928;30.306;2022-12-18T03:33:06;102378.63;;;-3.83;100.00
41250;BME280;26984;59.928;30.306;2022-12-18T03:35:37;102381.41;;;-3.87;100.00
41250;BME280;26984;59.928;30.306;2022-12-18T03:38:06;102378.00;;;-3.89;100.00
41250;BME280;26984;59.928;30.306;2022-12-18T03:40:39;102378.22;;;-3.76;100.00
41250;BME280;26984;59.928;30.306;2022-12-18T03:43:13;102381.59;;;-3.74;100.00
41250;BME280;26984;59.928;30.306;2022-12-18T03:45:46;102381.97;;;-4.15;100.00
41250;BME280;26984;59.928;30.306;2022-12-18T03:48:16;102386.94;;;-4.43;100.00
41250;BME280;26984;59.928;30.306;2022-12-18T03:50:48;102388.63;;;-4.42;100.00
41250;BME280;26984;59.928;30.306;2022-12-18T03:53:22;102389.63;;;-4.45;100.00
41250;BME280;26984;59.928;30.306;2022-12-18T03:55:52;102389.69;;;-4.64;100.00
41250;BME280;26984;59.928;30.306;2022-12-18T03:58:23;102382.25;;;-4.73;100.00
41250;BME280;26984;59.928;30.306;2022-12-18T04:01:10;102388.56;;;-4.41;100.00
41250;BME280;26984;59.928;30.306;2022-12-18T04:03:39;102387.38;;;-4.35;100.00
41250;BME280;26984;59.928;30.306;2022-12-18T04:06:09;102376.94;;;-4.54;100.00
41250;BME280;26984;59.928;30.306;2022-12-18T04:08:39;102374.84;;;-4.65;100.00
41250;BME280;26984;59.928;30.306;2022-12-18T04:11:10;102376.06;;;-4.72;100.00
41250;BME280;26984;59.928;30.306;2022-12-18T04:13:40;102370.69;;;-4.88;100.00
41250;BME280;26984;59.928;30.306;2022-12-18T04:16:18;102373.06;;;-5.00;100.00
41250;BME280;26984;59.928;30.306;2022-12-18T04:18:50;102368.75;;;-5.01;100.00
41250;BME280;26984;59.928;30.306;2022-12-18T04:21:19;102366.63;;;-5.12;100.00
41250;BME280;26984;59.928;30.306;2022-12-18T04:23:48;102371.38;;;-5.01;100.00
41250;BME280;26984;59.928;30.306;2022-12-18T04:26:18;102374.28;;;-5.26;100.00
41250;BME280;26984;59.928;30.306;2022-12-18T04:28:57;102366.56;;;-5.30;100.00
41250;BME280;26984;59.928;30.306;2022-12-18T04:31:24;102370.38;;;-5.18;100.00
41250;BME280;26984;59.928;30.306;2022-12-18T04:33:52;102372.28;;;-5.21;100.00
41250;BME280;26984;59.928;30.306;2022-12-18T04:36:20;102371.78;;;-5.11;100.00
41250;BME280;26984;59.928;30.306;2022-12-18T04:38:47;102376.72;;;-4.86;100.00
41250;BME280;26984;59.928;30.306;2022-12-18T04:41:16;102390.28;;;-5.12;100.00
41250;BME280;26984;59.928;30.306;2022-12-18T04:43:47;102387.22;;;-5.22;100.00
41250;BME280;26984;59.928;30.306;2022-12-18T04:46:15;102383.38;;;-5.15;100.00
41250;BME280;26984;59.928;30.306;2022-12-18T04:48:44;102380.81;;;-4.97;100.00
41250;BME280;26984;59.928;30.306;2022-12-18T04:51:12;102386.97;;;-4.79;100.00
41250;BME280;26984;59.928;30.306;2022-12-18T04:53:39;102384.41;;;-4.64;100.00
41250;BME280;26984;59.928;30.306;2022-12-18T04:56:07;102373.38;;;-4.53;100.00
41250;BME280;26984;59.928;30.306;2022-12-18T04:58:35;102375.75;;;-4.48;100.00
41250;BME280;26984;59.928;30.306;2022-12-18T05:01:03;102376.75;;;-4.68;100.00
41250;BME280;26984;59.928;30.306;2022-12-18T05:03:32;102373.25;;;-4.86;100.00
41250;BME280;26984;59.928;30.306;2022-12-18T05:06:00;102368.41;;;-4.76;100.00
41250;BME280;26984;59.928;30.306;2022-12-18T05:08:28;102370.16;;;-4.77;100.00
41250;BME280;26984;59.928;30.306;2022-12-18T05:10:58;102375.97;;;-4.70;100.00
41250;BME280;26984;59.928;30.306;2022-12-18T05:13:27;102380.84;;;-4.63;100.00
41250;BME280;26984;59.928;30.306;2022-12-18T05:15:54;102377.06;;;-4.74;100.00
41250;BME280;26984;59.928;30.306;2022-12-18T05:18:22;102368.50;;;-4.97;100.00
41250;BME280;26984;59.928;30.306;2022-12-18T05:20:51;102369.66;;;-5.02;100.00
41250;BME280;26984;59.928;30.306;2022-12-18T05:23:19;102382.28;;;-4.92;100.00
41250;BME280;26984;59.928;30.306;2022-12-18T05:25:50;102386.63;;;-4.91;100.00
41250;BME280;26984;59.928;30.306;2022-12-18T05:28:18;102372.56;;;-4.90;100.00
41250;BME280;26984;59.928;30.306;2022-12-18T05:30:47;102376.06;;;-5.08;100.00
41250;BME280;26984;59.928;30.306;2022-12-18T05:33:14;102367.31;;;-5.27;100.00
41250;BME280;26984;59.928;30.306;2022-12-18T05:35:42;102366.56;;;-5.30;100.00
41250;BME280;26984;59.928;30.306;2022-12-18T05:38:10;102373.72;;;-5.33;100.00
41250;BME280;26984;59.928;30.306;2022-12-18T05:40:41;102375.69;;;-5.38;100.00
41250;BME280;26984;59.928;30.306;2022-12-18T05:43:08;102387.69;;;-5.51;100.00
41250;BME280;26984;59.928;30.306;2022-12-18T05:45:36;102379.75;;;-5.50;100.00
41250;BME280;26984;59.928;30.306;2022-12-18T05:48:04;102377.56;;;-5.40;100.00
41250;BME280;26984;59.928;30.306;2022-12-18T05:50:33;102379.09;;;-5.17;100.00
41250;BME280;26984;59.928;30.306;2022-12-18T05:53:01;102381.38;;;-4.91;100.00
41250;BME280;26984;59.928;30.306;2022-12-18T05:55:32;102379.53;;;-4.71;100.00
41250;BME280;26984;59.928;30.306;2022-12-18T05:57:59;102382.44;;;-4.59;100.00
41250;BME280;26984;59.928;30.306;2022-12-18T06:00:26;102377.50;;;-4.47;100.00
41250;BME280;26984;59.928;30.306;2022-12-18T06:02:54;102378.75;;;-4.37;100.00
41250;BME280;26984;59.928;30.306;2022-12-18T06:05:21;102380.50;;;-4.38;100.00
41250;BME280;26984;59.928;30.306;2022-12-18T06:07:49;102382.81;;;-4.31;100.00
41250;BME280;26984;59.928;30.306;2022-12-18T06:10:16;102383.97;;;-4.20;100.00
41250;BME280;26984;59.928;30.306;2022-12-18T06:12:45;102382.53;;;-4.08;100.00
41250;BME280;26984;59.928;30.306;2022-12-18T06:15:12;102386.69;;;-4.04;100.00
41250;BME280;26984;59.928;30.306;2022-12-18T06:17:39;102392.81;;;-4.03;100.00
41250;BME280;26984;59.928;30.306;2022-12-18T06:20:07;102395.38;;;-4.02;100.00
41250;BME280;26984;59.928;30.306;2022-12-18T06:22:35;102393.25;;;-3.95;100.00
41250;BME280;26984;59.928;30.306;2022-12-18T06:25:02;102398.56;;;-4.13;100.00
41250;BME280;26984;59.928;30.306;2022-12-18T06:27:29;102395.94;;;-4.13;100.00
41250;BME280;26984;59.928;30.306;2022-12-18T06:29:59;102391.66;;;-4.15;100.00
41250;BME280;26984;59.928;30.306;2022-12-18T06:32:26;102386.94;;;-4.08;100.00
41250;BME280;26984;59.928;30.306;2022-12-18T06:34:53;102384.69;;;-4.16;100.00
41250;BME280;26984;59.928;30.306;2022-12-18T06:37:21;102376.47;;;-4.27;100.00
41250;BME280;26984;59.928;30.306;2022-12-18T06:39:50;102380.97;;;-4.29;100.00
41250;BME280;26984;59.928;30.306;2022-12-18T06:42:18;102379.97;;;-4.44;100.00
41250;BME280;26984;59.928;30.306;2022-12-18T06:44:45;102378.03;;;-4.58;100.00
41250;BME280;26984;59.928;30.306;2022-12-18T06:47:14;102380.41;;;-4.53;100.00
41250;BME280;26984;59.928;30.306;2022-12-18T06:49:41;102379.94;;;-4.62;100.00
41250;BME280;26984;59.928;30.306;2022-12-18T06:52:08;102379.53;;;-4.71;100.00
41250;BME280;26984;59.928;30.306;2022-12-18T06:54:36;102380.91;;;-4.82;100.00
41250;BME280;26984;59.928;30.306;2022-12-18T06:57:03;102379.88;;;-4.96;100.00
41250;BME280;26984;59.928;30.306;2022-12-18T06:59:30;102375.91;;;-5.05;100.00
41250;BME280;26984;59.928;30.306;2022-12-18T07:01:58;102377.13;;;-5.12;100.00
41250;BME280;26984;59.928;30.306;2022-12-18T07:04:28;102384.38;;;-5.17;100.00
41250;BME280;26984;59.928;30.306;2022-12-18T07:06:56;102380.09;;;-5.01;100.00
41250;BME280;26984;59.928;30.306;2022-12-18T07:09:23;102378.22;;;-4.99;100.00
41250;BME280;26984;59.928;30.306;2022-12-18T07:11:51;102377.53;;;-5.02;100.00
41250;BME280;26984;59.928;30.306;2022-12-18T07:14:18;102373.41;;;-4.89;100.00
41250;BME280;26984;59.928;30.306;2022-12-18T07:16:46;102383.91;;;-4.89;100.00
41250;BME280;26984;59.928;30.306;2022-12-18T07:19:13;102374.13;;;-5.04;100.00
41250;BME280;26984;59.928;30.306;2022-12-18T07:21:42;102382.59;;;-4.98;100.00
41250;BME280;26984;59.928;30.306;2022-12-18T07:24:09;102384.06;;;-4.92;100.00
41250;BME280;26984;59.928;30.306;2022-12-18T07:26:37;102378.66;;;-4.89;100.00
41250;BME280;26984;59.928;30.306;2022-12-18T07:29:04;102382.38;;;-4.93;100.00
41250;BME280;26984;59.928;30.306;2022-12-18T07:31:31;102382.09;;;-5.06;100.00
41250;BME280;26984;59.928;30.306;2022-12-18T07:33:59;102392.09;;;-5.14;100.00
41250;BME280;26984;59.928;30.306;2022-12-18T07:36:26;102390.56;;;-5.18;100.00
41250;BME280;26984;59.928;30.306;2022-12-18T07:38:55;102389.53;;;-5.35;100.00
41250;BME280;26984;59.928;30.306;2022-12-18T07:41:22;102395.47;;;-5.30;100.00
41250;BME280;26984;59.928;30.306;2022-12-18T07:43:49;102390.59;;;-5.39;100.00
41250;BME280;26984;59.928;30.306;2022-12-18T07:46:17;102390.53;;;-5.37;100.00
41250;BME280;26984;59.928;30.306;2022-12-18T07:48:44;102380.03;;;-5.37;100.00
41250;BME280;26984;59.928;30.306;2022-12-18T07:51:12;102398.34;;;-5.36;100.00
41250;BME280;26984;59.928;30.306;2022-12-18T07:53:40;102384.63;;;-5.23;100.00
41250;BME280;26984;59.928;30.306;2022-12-18T07:56:10;102377.19;;;-5.14;100.00
41250;BME280;26984;59.928;30.306;2022-12-18T07:58:38;102380.66;;;-4.94;100.00
41250;BME280;26984;59.928;30.306;2022-12-18T08:01:06;102365.66;;;-4.92;100.00
41250;BME280;26984;59.928;30.306;2022-12-18T08:03:33;102365.50;;;-4.89;100.00
41250;BME280;26984;59.928;30.306;2022-12-18T08:06:01;102352.97;;;-4.84;100.00
41250;BME280;26984;59.928;30.306;2022-12-18T08:08:29;102349.06;;;-4.75;100.00
41250;BME280;26984;59.928;30.306;2022-12-18T08:10:56;102339.09;;;-4.69;100.00
41250;BME280;26984;59.928;30.306;2022-12-18T08:13:26;102333.84;;;-4.51;100.00
41250;BME280;26984;59.928;30.306;2022-12-18T08:15:56;102329.06;;;-4.43;100.00
41250;BME280;26984;59.928;30.306;2022-12-18T08:18:24;102331.69;;;-4.26;100.00
41250;BME280;26984;59.928;30.306;2022-12-18T08:20:51;102331.81;;;-4.12;100.00
41250;BME280;26984;59.928;30.306;2022-12-18T08:23:18;102328.91;;;-3.90;100.00
41250;BME280;26984;59.928;30.306;2022-12-18T08:25:46;102323.59;;;-3.72;100.00
41250;BME280;26984;59.928;30.306;2022-12-18T08:28:13;102327.84;;;-3.54;100.00
41250;BME280;26984;59.928;30.306;2022-12-18T08:30:42;102335.09;;;-3.42;100.00
41250;BME280;26984;59.928;30.306;2022-12-18T08:33:10;102350.63;;;-3.53;100.00
41250;BME280;26984;59.928;30.306;2022-12-18T08:35:37;102359.38;;;-3.52;100.00
41250;BME280;26984;59.928;30.306;2022-12-18T08:38:04;102367.38;;;-3.54;100.00
41250;BME280;26984;59.928;30.306;2022-12-18T08:40:32;102358.34;;;-3.66;100.00
41250;BME280;26984;59.928;30.306;2022-12-18T08:42:59;102346.41;;;-3.89;100.00
41250;BME280;26984;59.928;30.306;2022-12-18T08:45:45;102358.97;;;-3.94;100.00
41250;BME280;26984;59.928;30.306;2022-12-18T08:48:12;102357.03;;;-3.90;100.00
41250;BME280;26984;59.928;30.306;2022-12-18T08:50:40;102352.06;;;-3.96;100.00
41250;BME280;26984;59.928;30.306;2022-12-18T08:53:07;102357.47;;;-3.82;100.00
41250;BME280;26984;59.928;30.306;2022-12-18T08:55:35;102355.78;;;-3.67;100.00
41250;BME280;26984;59.928;30.306;2022-12-18T08:58:02;102346.09;;;-3.67;100.00
41250;BME280;26984;59.928;30.306;2022-12-18T09:00:33;102348.50;;;-3.62;100.00
41250;BME280;26984;59.928;30.306;2022-12-18T09:03:02;102344.34;;;-3.66;99.14
41250;BME280;26984;59.928;30.306;2022-12-18T09:05:30;102339.56;;;-3.75;100.00
41250;BME280;26984;59.928;30.306;2022-12-18T09:07:57;102334.19;;;-3.74;100.00
41250;BME280;26984;59.928;30.306;2022-12-18T09:10:24;102333.44;;;-3.60;100.00
41250;BME280;26984;59.928;30.306;2022-12-18T09:12:52;102323.84;;;-3.45;99.88
41250;BME280;26984;59.928;30.306;2022-12-18T09:15:19;102328.88;;;-3.56;99.70
41250;BME280;26984;59.928;30.306;2022-12-18T09:17:46;102324.22;;;-3.51;100.00
41250;BME280;26984;59.928;30.306;2022-12-18T09:20:17;102328.13;;;-3.43;100.00
41250;BME280;26984;59.928;30.306;2022-12-18T09:22:44;102325.84;;;-3.33;97.63
41250;BME280;26984;59.928;30.306;2022-12-18T09:25:12;102314.09;;;-3.43;99.22
41250;BME280;26984;59.928;30.306;2022-12-18T09:27:39;102323.78;;;-3.28;99.94
41250;BME280;26984;59.928;30.306;2022-12-18T09:30:07;102321.31;;;-3.15;99.38
41250;BME280;26984;59.928;30.306;2022-12-18T09:32:35;102327.63;;;-3.02;98.06
41250;BME280;26984;59.928;30.306;2022-12-18T09:35:02;102327.75;;;-2.89;97.10
41250;BME280;26984;59.928;30.306;2022-12-18T09:37:31;102326.06;;;-2.90;97.19
41250;BME280;26984;59.928;30.306;2022-12-18T09:39:59;102320.16;;;-2.79;95.26
41250;BME280;26984;59.928;30.306;2022-12-18T09:42:26;102315.00;;;-2.81;93.84
41250;BME280;26984;59.928;30.306;2022-12-18T09:44:54;102319.66;;;-2.86;95.06
41250;BME280;26984;59.928;30.306;2022-12-18T09:47:22;102302.38;;;-2.76;94.40
41250;BME280;26984;59.928;30.306;2022-12-18T09:49:52;102314.28;;;-2.69;93.07
41250;BME280;26984;59.928;30.306;2022-12-18T09:52:23;102308.72;;;-2.64;94.60
41250;BME280;26984;59.928;30.306;2022-12-18T09:54:56;102312.81;;;-2.58;92.86
41250;BME280;26984;59.928;30.306;2022-12-18T09:57:29;102312.16;;;-2.48;92.60
41250;BME280;26984;59.928;30.306;2022-12-18T10:00:35;102296.16;;;-2.45;92.66
41250;BME280;26984;59.928;30.306;2022-12-18T10:03:11;102300.59;;;-2.45;90.13
41250;BME280;26984;59.928;30.306;2022-12-18T10:05:40;102298.19;;;-2.50;90.60
41250;BME280;26984;59.928;30.306;2022-12-18T10:08:10;102292.75;;;-2.47;90.02
41250;BME280;26984;59.928;30.306;2022-12-18T10:10:43;102290.38;;;-2.51;90.20
41250;BME280;26984;59.928;30.306;2022-12-18T10:13:15;102288.59;;;-2.51;90.47
41250;BME280;26984;59.928;30.306;2022-12-18T10:15:50;102284.94;;;-2.48;91.12
41250;BME280;26984;59.928;30.306;2022-12-18T10:18:22;102280.38;;;-2.46;90.79
41250;BME280;26984;59.928;30.306;2022-12-18T10:20:52;102284.28;;;-2.37;89.30
41250;BME280;26984;59.928;30.306;2022-12-18T10:23:23;102281.44;;;-2.49;90.65
41250;BME280;26984;59.928;30.306;2022-12-18T10:25:55;102283.13;;;-2.48;90.92
41250;BME280;26984;59.928;30.306;2022-12-18T10:28:27;102274.44;;;-2.50;90.84
41250;BME280;26984;59.928;30.306;2022-12-18T10:30:56;102273.72;;;-2.52;90.82
41250;BME280;26984;59.928;30.306;2022-12-18T10:33:24;102293.97;;;-2.52;89.28
41250;BME280;26984;59.928;30.306;2022-12-18T10:35:54;102275.75;;;-2.57;89.74
41250;BME280;26984;59.928;30.306;2022-12-18T10:38:23;102289.56;;;-2.68;90.85
41250;BME280;26984;59.928;30.306;2022-12-18T10:41:00;102296.94;;;-2.73;91.43
41250;BME280;26984;59.928;30.306;2022-12-18T10:43:38;102295.19;;;-2.88;91.40
41250;BME280;26984;59.928;30.306;2022-12-18T10:46:14;102278.09;;;-2.97;92.76
41250;BME280;26984;59.928;30.306;2022-12-18T10:48:50;102279.94;;;-2.83;92.34
41250;BME280;26984;59.928;30.306;2022-12-18T10:51:24;102288.50;;;-2.79;93.28
41250;BME280;26984;59.928;30.306;2022-12-18T10:53:56;102285.25;;;-2.69;92.95
41250;BME280;26984;59.928;30.306;2022-12-18T10:56:27;102297.28;;;-2.79;92.37
41250;BME280;26984;59.928;30.306;2022-12-18T10:58:55;102278.81;;;-2.79;92.07
41250;BME280;26984;59.928;30.306;2022-12-18T11:01:23;102282.69;;;-3.00;92.36
41250;BME280;26984;59.928;30.306;2022-12-18T11:03:58;102279.38;;;-3.04;93.59
41250;BME280;26984;59.928;30.306;2022-12-18T11:06:26;102275.06;;;-3.05;94.88
41250;BME280;26984;59.928;30.306;2022-12-18T11:08:57;102277.00;;;-3.08;95.11
41250;BME280;26984;59.928;30.306;2022-12-18T11:11:49;102280.81;;;-2.98;95.65
41250;BME280;26984;59.928;30.306;2022-12-18T11:14:20;102258.91;;;-3.15;94.97
41250;BME280;26984;59.928;30.306;2022-12-18T11:16:49;102281.06;;;-3.03;94.34
41250;BME280;26984;59.928;30.306;2022-12-18T11:19:22;102274.38;;;-3.08;94.04
41250;BME280;26984;59.928;30.306;2022-12-18T11:21:52;102263.41;;;-3.17;95.11
41250;BME280;26984;59.928;30.306;2022-12-18T11:24:20;102262.22;;;-3.11;96.23
41250;BME280;26984;59.928;30.306;2022-12-18T11:26:53;102263.16;;;-3.12;96.72
41250;BME280;26984;59.928;30.306;2022-12-18T11:29:23;102252.34;;;-3.07;96.99
41250;BME280;26984;59.928;30.306;2022-12-18T11:31:51;102252.56;;;-2.96;97.53
41250;BME280;26984;59.928;30.306;2022-12-18T11:34:19;102240.03;;;-2.93;96.52
41250;BME280;26984;59.928;30.306;2022-12-18T11:36:49;102245.91;;;-2.87;96.72
41250;BME280;26984;59.928;30.306;2022-12-18T11:39:18;102244.19;;;-2.89;95.66
41250;BME280;26984;59.928;30.306;2022-12-18T11:41:49;102239.41;;;-2.82;96.28
41250;BME280;26984;59.928;30.306;2022-12-18T11:44:41;102236.88;;;-2.83;95.93
41250;BME280;26984;59.928;30.306;2022-12-18T11:47:12;102237.28;;;-2.75;95.87
41250;BME280;26984;59.928;30.306;2022-12-18T11:49:41;102231.03;;;-2.74;96.35
41250;BME280;26984;59.928;30.306;2022-12-18T11:52:09;102227.00;;;-2.80;96.08
41250;BME280;26984;59.928;30.306;2022-12-18T11:54:42;102223.97;;;-2.88;97.50
41250;BME280;26984;59.928;30.306;2022-12-18T11:57:12;102216.06;;;-2.88;96.81
41250;BME280;26984;59.928;30.306;2022-12-18T11:59:47;102207.88;;;-2.83;98.33
41250;BME280;26984;59.928;30.306;2022-12-18T12:02:21;102209.56;;;-2.82;98.33
41250;BME280;26984;59.928;30.306;2022-12-18T12:04:57;102204.00;;;-2.78;99.05
41250;BME280;26984;59.928;30.306;2022-12-18T12:07:31;102205.97;;;-2.81;98.46
41250;BME280;26984;59.928;30.306;2022-12-18T12:10:04;102205.91;;;-2.80;99.26
41250;BME280;26984;59.928;30.306;2022-12-18T12:12:38;102203.94;;;-2.76;99.85
41250;BME280;26984;59.928;30.306;2022-12-18T12:15:17;102200.97;;;-2.86;99.72
41250;BME280;26984;59.928;30.306;2022-12-18T12:17:51;102194.97;;;-2.88;100.00
41250;BME280;26984;59.928;30.306;2022-12-18T12:20:22;102199.84;;;-2.82;100.00
41250;BME280;26984;59.928;30.306;2022-12-18T12:22:52;102196.19;;;-2.79;100.00
41250;BME280;26984;59.928;30.306;2022-12-18T12:25:27;102200.03;;;-2.85;100.00
41250;BME280;26984;59.928;30.306;2022-12-18T12:27:59;102198.28;;;-2.84;100.00
41250;BME280;26984;59.928;30.306;2022-12-18T12:30:33;102203.13;;;-2.93;100.00
41250;BME280;26984;59.928;30.306;2022-12-18T12:33:10;102201.41;;;-3.08;100.00
41250;BME280;26984;59.928;30.306;2022-12-18T12:35:44;102211.56;;;-3.16;100.00
41250;BME280;26984;59.928;30.306;2022-12-18T12:38:14;102211.38;;;-3.13;100.00
41250;BME280;26984;59.928;30.306;2022-12-18T12:40:43;102207.50;;;-3.07;100.00
41250;BME280;26984;59.928;30.306;2022-12-18T12:43:16;102202.25;;;-3.07;100.00
41250;BME280;26984;59.928;30.306;2022-12-18T12:45:48;102205.19;;;-2.98;100.00
41250;BME280;26984;59.928;30.306;2022-12-18T12:48:17;102209.19;;;-2.91;100.00